Flight Track Log - Related Links

Times and Time Zones

All times are in EDT time to prevent confusion due to time zone crossing. See the SWA2068 flight status page for this flight to view local times or setup timezone preferences in your user account.

Time Position Orientation Groundspeed Altitude Reporting Facility
EDT Latitude Longitude Course Direction KTS MPH feet Rate Location/Type
Sat 07:17:05 AM 36.1333 -86.7000 292° West 169 194 1,200  Level Nashville TRACON
Sat 07:17:59 AM 36.1500 -86.7500 292° West 198 228 2,900 2,316 Climbing Nashville TRACON
Sat 07:18:59 AM 36.2000 -86.7833 332° Northwest 228 262 5,600 2,550 Climbing Nashville TRACON
Sat 07:19:59 AM 36.2000 -86.6833 90° East 283 326 8,000 2,622 Climbing Nashville TRACON
Sat 07:21:14 AM 36.2031 -86.5786 88° East 334 384 11,500 2,622 Climbing Memphis Center
Sat 07:22:14 AM 36.2036 -86.4578 90° East 352 405 13,900 2,850 Climbing Memphis Center
Sat 07:23:14 AM 36.2014 -86.3267 91° East 369 425 17,200 3,050 Climbing Memphis Center
Sat 07:24:14 AM 36.2006 -86.1775 90° East 381 438 20,000 2,600 Climbing Memphis Center
Sat 07:25:14 AM 36.2128 -86.0431 84° East 392 451 22,400 2,150 Climbing Memphis Center
Sat 07:26:14 AM 36.2647 -85.9219 62° Northeast 387 445 24,300 2,043 Climbing Memphis Center
Sat 07:27:32 AM 36.3350 -85.7694 60° Northeast 406 467 27,100 1,870 Climbing Indianapolis Center
Sat 07:28:32 AM 36.3956 -85.6450 59° Northeast 417 480 28,600 942 Climbing Indianapolis Center
Sat 07:29:33 AM 36.4558 -85.5178 59° Northeast 423 487 29,000 197 Climbing Indianapolis Center
Sat 07:30:34 AM 36.5169 -85.3894 59° Northeast 429 494 29,000 590 Level Indianapolis Center
Sat 07:31:35 AM 36.5769 -85.2614 60° Northeast 427 491 30,200 1,488 Climbing Indianapolis Center
Sat 07:32:35 AM 36.6317 -85.1269 63° Northeast 433 498 32,000 1,388 Climbing Indianapolis Center
Sat 07:33:36 AM 36.6756 -84.9797 70° East 449 517 33,000 1,403 Climbing Indianapolis Center
Sat 07:34:39 AM 36.7211 -84.8331 69° East 452 520 34,900 1,388 Climbing Indianapolis Center
Sat 07:35:37 AM 36.7664 -84.6844 69° East 458 527 35,800 992 Climbing Indianapolis Center
Sat 07:36:40 AM 36.8117 -84.5333 69° East 464 534 36,900 1,113 Climbing Indianapolis Center
Sat 07:37:41 AM 36.8575 -84.3833 69° East 463 533 38,100 934 Climbing Indianapolis Center
Sat 07:38:42 AM 36.9019 -84.2358 69° East 456 525 38,800 443 Climbing Indianapolis Center
Sat 07:39:43 AM 36.9444 -84.0897 70° East 449 517 39,000 98 Climbing Indianapolis Center
Sat 07:40:44 AM 36.9889 -83.9411 69° East 455 524 39,000  Level Indianapolis Center
Sat 07:41:44 AM 37.0425 -83.7672 69° East 458 527 39,000  Level Indianapolis Center
Sat 07:42:45 AM 37.0861 -83.6169 70° East 459 528 39,000  Level Indianapolis Center
Sat 07:43:45 AM 37.1294 -83.4672 70° East 457 526 39,000  Level Indianapolis Center
Sat 07:44:48 AM 37.1725 -83.3169 70° East 455 524 39,000  Level Indianapolis Center
Sat 07:45:49 AM 37.2161 -83.1678 70° East 452 520 39,000  Level Indianapolis Center
Sat 07:46:48 AM 37.2603 -83.0161 70° East 456 525 39,000  Level Indianapolis Center
Sat 07:47:51 AM 37.3053 -82.8650 69° East 457 526 39,000  Level Indianapolis Center
Sat 07:48:51 AM 37.3494 -82.7133 70° East 458 527 39,000  Level Indianapolis Center
Sat 07:49:51 AM 37.3939 -82.5611 70° East 460 529 39,000  Level Indianapolis Center
Sat 07:50:54 AM 37.4375 -82.4075 70° East 463 533 39,000  Level Indianapolis Center
Sat 07:51:53 AM 37.4814 -82.2558 70° East 460 529 39,000  Level Indianapolis Center
Sat 07:52:57 AM 37.5261 -82.1019 70° East 466 536 39,000  Level Indianapolis Center
Sat 07:53:55 AM 37.5708 -81.9475 70° East 467 537 39,000  Level Indianapolis Center
Sat 07:54:59 AM 37.6139 -81.7900 71° East 475 547 39,000  Level Indianapolis Center
Sat 07:56:00 AM 37.6589 -81.6314 70° East 479 551 39,000  Level Indianapolis Center
Sat 07:57:01 AM 37.7056 -81.4628 71° East 477 549 39,000  Level Indianapolis Center
Sat 07:58:02 AM 37.7475 -81.3100 71° East 475 547 39,000  Level Indianapolis Center
Sat 07:59:01 AM 37.7894 -81.1581 71° East 472 543 39,000  Level Indianapolis Center
Sat 08:00:02 AM 37.8303 -81.0064 71° East 468 539 39,000  Level Indianapolis Center
Sat 08:01:05 AM 37.8811 -80.8214 71° East 464 534 39,000  Level Indianapolis Center
Sat 08:02:06 AM 37.9225 -80.6686 71° East 460 529 39,000  Level Indianapolis Center
Sat 08:03:05 AM 37.9608 -80.5331 70° East 457 526 39,000  Level Washington Center
Sat 08:04:06 AM 38.0047 -80.3778 70° East 457 526 39,000  Level Washington Center
Sat 08:05:07 AM 38.0442 -80.2247 72° East 457 526 39,000  Level Washington Center
Sat 08:06:05 AM 38.0903 -80.0558 71° East 457 526 39,000  Level Washington Center
Sat 08:07:06 AM 38.1333 -79.9028 70° East 457 526 39,000  Level Washington Center
Sat 08:08:07 AM 38.1722 -79.7492 72° East 457 526 39,000 -250 Level Washington Center
Sat 08:09:06 AM 38.2128 -79.5981 71° East 457 526 38,500 -1,400 Descending Washington Center
Sat 08:10:07 AM 38.2511 -79.4467 72° East 452 520 36,200 -2,622 Descending Washington Center
Sat 08:11:05 AM 38.2867 -79.3083 72° East 452 520 33,300 -2,622 Descending Washington Center
Sat 08:12:06 AM 38.3267 -79.1569 71° East 452 520 31,000 -2,231 Descending Washington Center
Sat 08:13:06 AM 38.3622 -79.0103 73° East 452 520 28,800 -1,967 Descending Washington Center
Sat 08:14:08 AM 38.4003 -78.8478 73° East 441 507 27,000 -908 Descending Washington Center
Sat 08:15:05 AM 38.4353 -78.7008 73° East 431 496 27,000  Level Washington Center
Sat 08:16:06 AM 38.4725 -78.5567 72° East 431 496 27,000 -50 Level Washington Center
Sat 08:17:06 AM 38.5092 -78.4094 72° East 431 496 26,900 -992 Descending Washington Center
Sat 08:18:07 AM 38.5439 -78.2647 73° East 431 496 25,000 -2,067 Descending Washington Center
Sat 08:19:05 AM 38.5783 -78.1225 73° East 426 490 22,800 -2,168 Descending Washington Center
Sat 08:20:06 AM 38.6103 -77.9881 73° East 411 473 20,700 -1,884 Descending Washington Center
Sat 08:21:06 AM 38.6400 -77.8508 74° East 399 459 19,000 -857 Descending Washington Center
Sat 08:22:05 AM 38.6486 -77.7156 85° East 388 447 19,000  Level Washington Center
Sat 08:22:46 AM 38.6500 -77.6167 89° East 379 436 19,000 -765 Level Potomac TRACON
Sat 08:23:47 AM 38.6667 -77.4833 81° East 368 423 17,700 -1,651 Descending Potomac TRACON
Sat 08:24:35 AM 38.6667 -77.3833 90° East 366 421 16,000 -1,105 Descending Potomac TRACON
Sat 08:25:41 AM 38.6833 -77.2500 81° East 354 407 15,600 -1,134 Descending Potomac TRACON
Sat 08:26:42 AM 38.6833 -77.1167 90° East 354 407 13,600 -1,878 Descending Potomac TRACON
Sat 08:27:36 AM 38.6833 -77.0167 90° East 347 399 12,000 -1,650 Descending Potomac TRACON
Sat 08:28:42 AM 38.7000 -76.8833 81° East 328 377 10,300 -1,276 Descending Potomac TRACON
Sat 08:29:43 AM 38.7000 -76.7667 90° East 296 341 9,300 -939 Descending Potomac TRACON
Sat 08:30:37 AM 38.7333 -76.6833 63° Northeast 298 343 8,500 -1,158 Descending Potomac TRACON
Sat 08:31:37 AM 38.7667 -76.6000 63° Northeast 287 330 7,100 -1,438 Descending Potomac TRACON
Sat 08:32:38 AM 38.8167 -76.5167 52° Northeast 292 336 5,600 -1,388 Descending Potomac TRACON
Sat 08:33:38 AM 38.9000 -76.4833 17° North 285 328 4,300 -793 Descending Potomac TRACON
Sat 08:34:39 AM 38.9667 -76.4500 21° North 258 297 4,000 -417 Descending Potomac TRACON
Sat 08:35:33 AM 39.0333 -76.4333 11° North 240 276 3,500 -526 Descending Potomac TRACON
Sat 08:36:33 AM 39.0833 -76.4000 27° Northeast 233 268 3,000 -350 Descending Potomac TRACON
Sat 08:37:33 AM 39.1333 -76.4000 360° North 200 230 2,800 -417 Descending Potomac TRACON
Sat 08:38:28 AM 39.1500 -76.4500 293° West 179 206 2,200 -440 Descending Potomac TRACON
Sat 08:39:22 AM 39.1667 -76.5000 293° West 166 191 2,000 -263 Descending Potomac TRACON
Sat 08:40:22 AM 39.1667 -76.5667 270° West 148 170 1,700 -550 Descending Potomac TRACON
Sat 08:41:22 AM 39.1667 -76.6167 270° West 140 161 900 -800 Descending Potomac TRACON
Sat 08:43:00 AM 39.1667 -76.6667 282° West  Level FlightAware Approximate
Sat 08:50:00 AM 39.1754 -76.6683 282° West  Level Estimated

Login

Don't have an account? Register now (free) for customized features, flight alerts, and more!